Wetterdaten: Dienstag, 13.07.2004
Datum Zeit Temp. A Sch. Temp. A Son. Feuchte A. Luftdruck Regen Wind Richtung Richtung Sonnenschein Helligkeit Taupunkt Windchill
13.07.2004 00:00 11,5 C 11,8 C 83 % 1013 hPa 0,0 l/m 3,3 m/s (1 Bft) W-SW22.5 250 0,00 min 0 lux 8,7 C 8,2 C
13.07.2004 00:05 11,5 C 11,8 C 83 % 1013 hPa 0,0 l/m 3,3 m/s (1 Bft) W-SW22.5 250 0,00 min 0 lux 8,7 C 8,2 C
13.07.2004 00:10 11,5 C 11,8 C 83 % 1013 hPa 0,0 l/m 3,9 m/s (1 Bft) W-SW22.5 250 0,00 min 0 lux 8,7 C 7,3 C
13.07.2004 00:15 11,5 C 11,7 C 83 % 1013 hPa 0,0 l/m 3,9 m/s (1 Bft) W22.5 265 0,00 min 0 lux 8,7 C 7,4 C
13.07.2004 00:20 11,5 C 11,7 C 83 % 1013 hPa 0,0 l/m 3,4 m/s (1 Bft) W-SW22.5 250 0,00 min 0 lux 8,7 C 8,1 C
13.07.2004 00:25 11,4 C 11,7 C 83 % 1013 hPa 0,0 l/m 2,6 m/s (1 Bft) W22.5 270 0,00 min 0 lux 8,6 C 9,6 C
13.07.2004 00:30 11,4 C 11,7 C 83 % 1013 hPa 0,0 l/m 4,1 m/s (1 Bft) W-SW22.5 245 0,00 min 0 lux 8,6 C 6,9 C
13.07.2004 00:35 11,5 C 11,7 C 83 % 1013 hPa 0,0 l/m 4,0 m/s (1 Bft) W-SW22.5 255 0,00 min 0 lux 8,7 C 7,2 C
13.07.2004 00:40 11,5 C 11,7 C 83 % 1013 hPa 0,0 l/m 4,1 m/s (1 Bft) W-SW22.5 250 0,00 min 0 lux 8,7 C 7,0 C
13.07.2004 00:45 11,5 C 11,8 C 83 % 1013 hPa 0,0 l/m 5,1 m/s (1 Bft) W-SW22.5 250 0,00 min 0 lux 8,7 C 5,7 C
13.07.2004 00:50 11,5 C 11,8 C 83 % 1013 hPa 0,0 l/m 3,8 m/s (1 Bft) W-SW22.5 250 0,00 min 0 lux 8,7 C 7,6 C
13.07.2004 00:55 11,5 C 11,7 C 83 % 1013 hPa 0,0 l/m 3,3 m/s (1 Bft) W-SW22.5 255 0,00 min 0 lux 8,7 C 8,4 C
13.07.2004 01:00 11,5 C 11,8 C 83 % 1013 hPa 0,0 l/m 2,9 m/s (1 Bft) W-SW22.5 250 0,00 min 0 lux 8,7 C 9,1 C
13.07.2004 01:05 11,5 C 11,7 C 83 % 1013 hPa 0,0 l/m 3,6 m/s (1 Bft) W-SW22.5 250 0,00 min 0 lux 8,7 C 7,7 C
13.07.2004 01:10 11,5 C 11,7 C 83 % 1013 hPa 0,0 l/m 3,2 m/s (1 Bft) W-SW22.5 255 0,00 min 0 lux 8,7 C 8,4 C
13.07.2004 01:15 11,5 C 11,7 C 83 % 1013 hPa 0,0 l/m 3,8 m/s (1 Bft) W45 265 0,00 min 0 lux 8,7 C 7,4 C
13.07.2004 01:20 11,5 C 11,7 C 83 % 1013 hPa 0,0 l/m 2,7 m/s (1 Bft) W-SW22.5 255 0,00 min 0 lux 8,7 C 9,5 C
13.07.2004 01:25 11,5 C 11,7 C 84 % 1013 hPa 0,0 l/m 2,1 m/s (1 Bft) W45 265 0,00 min 0 lux 8,9 C 10,6 C
13.07.2004 01:30 11,6 C 11,8 C 84 % 1013 hPa 0,0 l/m 2,7 m/s (1 Bft) W-SW45 255 0,00 min 0 lux 9,0 C 9,6 C
13.07.2004 01:35 11,6 C 11,8 C 83 % 1013 hPa 0,0 l/m 4,0 m/s (1 Bft) W-SW45 255 0,00 min 0 lux 8,8 C 7,4 C
13.07.2004 01:40 11,7 C 11,8 C 83 % 1013 hPa 0,0 l/m 3,4 m/s (1 Bft) W22.5 260 0,00 min 0 lux 8,9 C 8,4 C
13.07.2004 01:45 11,7 C 11,8 C 83 % 1013 hPa 0,0 l/m 3,9 m/s (1 Bft) W-SW45 255 0,00 min 0 lux 8,9 C 7,5 C
13.07.2004 01:50 11,7 C 11,8 C 83 % 1013 hPa 0,0 l/m 4,5 m/s (1 Bft) W-SW22.5 255 0,00 min 0 lux 8,9 C 6,7 C
13.07.2004 01:55 11,7 C 11,8 C 82 % 1013 hPa 0,0 l/m 4,8 m/s (1 Bft) W45 260 0,00 min 0 lux 8,7 C 6,4 C
13.07.2004 02:00 11,7 C 11,8 C 82 % 1013 hPa 0,0 l/m 4,9 m/s (1 Bft) W-SW22.5 255 0,00 min 0 lux 8,7 C 6,2 C
13.07.2004 02:05 11,7 C 11,8 C 82 % 1013 hPa 0,0 l/m 5,8 m/s (2 Bft) W-SW22.5 255 0,00 min 0 lux 8,7 C 5,2 C
13.07.2004 02:10 11,6 C 11,8 C 81 % 1013 hPa 0,0 l/m 6,4 m/s (2 Bft) W-SW45 255 0,00 min 0 lux 8,5 C 4,5 C
13.07.2004 02:15 11,6 C 11,8 C 81 % 1013 hPa 0,0 l/m 5,1 m/s (1 Bft) W-SW22.5 250 0,00 min 0 lux 8,5 C 5,8 C
13.07.2004 02:20 11,5 C 11,8 C 81 % 1013 hPa 0,0 l/m 4,4 m/s (1 Bft) W-SW45 250 0,00 min 0 lux 8,4 C 6,7 C
13.07.2004 02:25 11,5 C 11,8 C 81 % 1013 hPa 0,0 l/m 5,9 m/s (2 Bft) W-SW45 250 0,00 min 0 lux 8,4 C 4,9 C
13.07.2004 02:30 11,5 C 11,8 C 81 % 1013 hPa 0,0 l/m 5,2 m/s (1 Bft) W-SW22.5 255 0,00 min 0 lux 8,4 C 5,6 C
13.07.2004 02:35 11,5 C 11,7 C 81 % 1013 hPa 0,0 l/m 6,6 m/s (2 Bft) W-SW45 250 0,00 min 0 lux 8,4 C 4,1 C
13.07.2004 02:40 11,4 C 11,7 C 81 % 1013 hPa 0,0 l/m 6,4 m/s (2 Bft) W-SW45 250 0,00 min 0 lux 8,3 C 4,2 C
13.07.2004 02:45 11,2 C 11,6 C 81 % 1013 hPa 0,0 l/m 7,1 m/s (2 Bft) W22.5 260 0,00 min 0 lux 8,1 C 3,3 C
13.07.2004 02:50 11,3 C 11,5 C 81 % 1013 hPa 0,0 l/m 4,8 m/s (1 Bft) W-SW22.5 255 0,00 min 0 lux 8,2 C 5,9 C
13.07.2004 02:55 11,3 C 11,5 C 81 % 1013 hPa 0,0 l/m 5,3 m/s (1 Bft) W-SW45 255 0,00 min 0 lux 8,2 C 5,2 C
13.07.2004 03:00 11,2 C 11,4 C 81 % 1013 hPa 0,0 l/m 4,4 m/s (1 Bft) W45 260 0,00 min 0 lux 8,1 C 6,2 C
13.07.2004 03:05 11,1 C 11,4 C 81 % 1013 hPa 0,0 l/m 4,3 m/s (1 Bft) W-SW45 250 0,00 min 0 lux 8,0 C 6,2 C
13.07.2004 03:10 11,1 C 11,4 C 81 % 1013 hPa 0,0 l/m 4,6 m/s (1 Bft) W-SW22.5 255 0,00 min 0 lux 8,0 C 5,9 C
13.07.2004 03:15 11,0 C 11,4 C 81 % 1013 hPa 0,0 l/m 4,3 m/s (1 Bft) W-SW22.5 250 0,00 min 0 lux 7,9 C 6,1 C
13.07.2004 03:20 11,1 C 11,3 C 81 % 1013 hPa 0,0 l/m 3,5 m/s (1 Bft) W-SW22.5 245 0,00 min 0 lux 8,0 C 7,5 C
13.07.2004 03:25 11,1 C 11,3 C 81 % 1013 hPa 0,0 l/m 5,6 m/s (1 Bft) W45 260 0,00 min 0 lux 8,0 C 4,7 C
13.07.2004 03:30 11,1 C 11,3 C 81 % 1013 hPa 0,0 l/m 3,4 m/s (1 Bft) W45 260 0,00 min 0 lux 8,0 C 7,6 C
13.07.2004 03:35 11,0 C 11,3 C 82 % 1013 hPa 0,0 l/m 3,6 m/s (1 Bft) W-SW22.5 255 0,00 min 0 lux 8,0 C 7,3 C
13.07.2004 03:40 11,1 C 11,3 C 81 % 1013 hPa 0,0 l/m 3,4 m/s (1 Bft) W-SW22.5 250 0,00 min 0 lux 8,0 C 7,6 C
13.07.2004 03:45 11,1 C 11,3 C 82 % 1013 hPa 0,0 l/m 3,1 m/s (1 Bft) W-SW22.5 250 0,00 min 0 lux 8,1 C 8,3 C
13.07.2004 03:50 11,1 C 11,3 C 82 % 1013 hPa 0,0 l/m 3,3 m/s (1 Bft) W-SW22.5 245 0,00 min 0 lux 8,1 C 7,9 C
13.07.2004 03:55 11,1 C 11,3 C 82 % 1013 hPa 0,0 l/m 3,7 m/s (1 Bft) W-SW22.5 255 0,00 min 0 lux 8,1 C 7,2 C
13.07.2004 04:00 11,1 C 11,3 C 82 % 1013 hPa 0,0 l/m 3,3 m/s (1 Bft) W-SW22.5 250 0,00 min 0 lux 8,1 C 7,9 C
13.07.2004 04:05 11,1 C 11,3 C 81 % 1013 hPa 0,0 l/m 3,2 m/s (1 Bft) W-SW22.5 250 0,00 min 0 lux 8,0 C 8,0 C
13.07.2004 04:10 11,0 C 11,3 C 82 % 1013 hPa 0,0 l/m 4,0 m/s (1 Bft) W22.5 260 0,00 min 0 lux 8,0 C 6,6 C
13.07.2004 04:15 11,0 C 11,3 C 82 % 1013 hPa 0,0 l/m 3,2 m/s (1 Bft) W-SW45 250 0,00 min 0 lux 8,0 C 7,9 C
13.07.2004 04:20 11,1 C 11,3 C 81 % 1013 hPa 0,0 l/m 4,9 m/s (1 Bft) W-SW22.5 250 0,00 min 0 lux 8,0 C 5,5 C
13.07.2004 04:25 11,1 C 11,3 C 81 % 1013 hPa 0,0 l/m 3,1 m/s (1 Bft) W22.5 260 0,00 min 0 lux 8,0 C 8,2 C
13.07.2004 04:30 11,1 C 11,3 C 81 % 1013 hPa 0,0 l/m 2,8 m/s (1 Bft) W-SW22.5 255 0,00 min 0 lux 8,0 C 8,9 C
13.07.2004 04:35 11,1 C 11,3 C 81 % 1013 hPa 0,0 l/m 5,1 m/s (1 Bft) W-SW45 255 0,00 min 0 lux 8,0 C 5,2 C
13.07.2004 04:40 11,1 C 11,3 C 81 % 1013 hPa 0,0 l/m 3,9 m/s (1 Bft) W-SW22.5 250 0,00 min 0 lux 8,0 C 6,9 C
13.07.2004 04:45 11,1 C 11,3 C 81 % 1013 hPa 0,0 l/m 4,0 m/s (1 Bft) W-SW22.5 255 0,00 min 0 lux 8,0 C 6,7 C
13.07.2004 04:50 11,2 C 11,3 C 81 % 1013 hPa 0,0 l/m 5,1 m/s (1 Bft) W-SW22.5 255 0,00 min 0 lux 8,1 C 5,4 C
13.07.2004 04:55 11,2 C 11,3 C 80 % 1013 hPa 0,0 l/m 5,1 m/s (1 Bft) W-SW22.5 255 0,00 min 0 lux 7,9 C 5,4 C
13.07.2004 05:00 11,2 C 11,3 C 80 % 1013 hPa 0,0 l/m 4,7 m/s (1 Bft) W22.5 260 0,00 min 0 lux 7,9 C 5,9 C
13.07.2004 05:05 11,1 C 11,3 C 80 % 1013 hPa 0,0 l/m 6,0 m/s (2 Bft) W22.5 260 0,00 min 0 lux 7,8 C 4,2 C
13.07.2004 05:10 11,1 C 11,3 C 80 % 1013 hPa 0,0 l/m 6,0 m/s (2 Bft) W45 260 0,00 min 0 lux 7,8 C 4,3 C
13.07.2004 05:15 11,2 C 11,3 C 79 % 1013 hPa 0,0 l/m 5,7 m/s (1 Bft) W22.5 265 0,00 min 39 lux 7,7 C 4,7 C
13.07.2004 05:20 11,2 C 11,3 C 79 % 1013 hPa 0,0 l/m 6,1 m/s (2 Bft) W-SW22.5 250 0,00 min 70 lux 7,7 C 4,3 C
13.07.2004 05:25 11,1 C 11,3 C 79 % 1013 hPa 0,0 l/m 4,0 m/s (1 Bft) W45 270 0,00 min 105 lux 7,6 C 6,7 C
13.07.2004 05:30 11,1 C 11,3 C 79 % 1013 hPa 0,0 l/m 3,9 m/s (1 Bft) W-SW22.5 255 0,00 min 193 lux 7,6 C 6,8 C
13.07.2004 05:35 11,1 C 11,3 C 79 % 1013 hPa 0,0 l/m 4,9 m/s (1 Bft) W-SW45 250 0,00 min 226 lux 7,6 C 5,4 C
13.07.2004 05:40 11,1 C 11,3 C 80 % 1013 hPa 0,0 l/m 4,1 m/s (1 Bft) W22.5 260 0,00 min 286 lux 7,8 C 6,6 C
13.07.2004 05:45 11,1 C 11,3 C 80 % 1013 hPa 0,0 l/m 3,4 m/s (1 Bft) W22.5 260 0,00 min 288 lux 7,8 C 7,7 C
13.07.2004 05:50 11,1 C 11,3 C 80 % 1013 hPa 0,0 l/m 6,0 m/s (2 Bft) W-SW45 250 0,00 min 242 lux 7,8 C 4,2 C
13.07.2004 05:55 11,0 C 11,3 C 81 % 1013 hPa 0,0 l/m 2,8 m/s (1 Bft) W-SW22.5 250 0,00 min 281 lux 7,9 C 8,6 C
13.07.2004 06:00 11,0 C 11,3 C 81 % 1013 hPa 0,0 l/m 4,3 m/s (1 Bft) W45 270 0,00 min 387 lux 7,9 C 6,2 C
13.07.2004 06:05 11,0 C 11,3 C 82 % 1013 hPa 0,0 l/m 5,6 m/s (1 Bft) W-SW22.5 250 0,00 min 424 lux 8,0 C 4,6 C
13.07.2004 06:10 11,0 C 11,3 C 82 % 1013 hPa 0,0 l/m 5,0 m/s (1 Bft) W22.5 260 0,00 min 673 lux 8,0 C 5,2 C
13.07.2004 06:15 11,0 C 11,3 C 83 % 1013 hPa 0,0 l/m 3,6 m/s (1 Bft) W22.5 260 0,00 min 765 lux 8,2 C 7,3 C
13.07.2004 06:20 11,0 C 11,2 C 83 % 1013 hPa 0,0 l/m 3,1 m/s (1 Bft) W-SW22.5 255 0,00 min 775 lux 8,2 C 8,1 C
13.07.2004 06:25 11,0 C 11,2 C 83 % 1013 hPa 0,0 l/m 3,8 m/s (1 Bft) W-SW22.5 255 0,00 min 695 lux 8,2 C 6,9 C
13.07.2004 06:30 11,0 C 11,2 C 83 % 1013 hPa 0,0 l/m 4,1 m/s (1 Bft) W-SW45 255 0,00 min 1,23 klux 8,2 C 6,5 C
13.07.2004 06:35 11,1 C 11,3 C 83 % 1013 hPa 0,0 l/m 4,0 m/s (1 Bft) W22.5 260 0,00 min 2,94 klux 8,3 C 6,8 C
13.07.2004 06:40 11,1 C 11,3 C 83 % 1013 hPa 0,0 l/m 4,1 m/s (1 Bft) W-SW22.5 255 0,00 min 2,29 klux 8,3 C 6,6 C
13.07.2004 06:45 11,1 C 11,3 C 83 % 1013 hPa 0,0 l/m 4,0 m/s (1 Bft) W-SW45 255 0,00 min 1,87 klux 8,3 C 6,8 C
13.07.2004 06:50 11,1 C 11,3 C 82 % 1013 hPa 0,0 l/m 4,1 m/s (1 Bft) W-SW45 250 0,00 min 5,01 klux 8,1 C 6,6 C
13.07.2004 06:55 11,2 C 11,4 C 83 % 1013 hPa 0,0 l/m 4,5 m/s (1 Bft) W-SW45 255 0,00 min 6,02 klux 8,4 C 6,1 C
13.07.2004 07:00 11,2 C 11,4 C 83 % 1013 hPa 0,0 l/m 3,1 m/s (1 Bft) W-SW45 255 0,00 min 6,36 klux 8,4 C 8,4 C
13.07.2004 07:05 11,3 C 11,4 C 82 % 1013 hPa 0,0 l/m 3,1 m/s (1 Bft) W22.5 260 0,00 min 6,61 klux 8,3 C 8,4 C
13.07.2004 07:10 11,3 C 11,5 C 82 % 1013 hPa 0,0 l/m 3,8 m/s (1 Bft) W-SW22.5 255 0,00 min 3,99 klux 8,3 C 7,3 C
13.07.2004 07:15 11,2 C 11,4 C 81 % 1014 hPa 0,0 l/m 6,1 m/s (2 Bft) W-SW22.5 255 0,00 min 2,46 klux 8,1 C 4,2 C
13.07.2004 07:20 11,1 C 11,4 C 82 % 1014 hPa 0,0 l/m 4,7 m/s (1 Bft) W-SW22.5 250 0,00 min 2,18 klux 8,1 C 5,7 C
13.07.2004 07:25 11,0 C 11,4 C 83 % 1014 hPa 0,0 l/m 4,3 m/s (1 Bft) W-SW22.5 250 0,00 min 2,50 klux 8,2 C 6,2 C
13.07.2004 07:30 11,1 C 11,4 C 83 % 1014 hPa 0,0 l/m 4,5 m/s (1 Bft) W-SW22.5 250 0,00 min 3,54 klux 8,3 C 6,0 C
13.07.2004 07:35 11,0 C 11,4 C 83 % 1014 hPa 0,0 l/m 5,1 m/s (1 Bft) W-SW45 250 0,00 min 5,32 klux 8,2 C 5,1 C
13.07.2004 07:40 11,0 C 11,4 C 84 % 1014 hPa 0,0 l/m 2,4 m/s (1 Bft) W-SW45 255 0,00 min 5,25 klux 8,4 C 9,5 C
13.07.2004 07:45 11,0 C 11,3 C 83 % 1014 hPa 0,0 l/m 4,1 m/s (1 Bft) W-SW45 250 0,00 min 6,79 klux 8,2 C 6,4 C
13.07.2004 07:50 11,1 C 11,4 C 83 % 1014 hPa 0,0 l/m 5,1 m/s (1 Bft) W22.5 260 0,00 min 8,00 klux 8,3 C 5,3 C
13.07.2004 07:55 11,2 C 11,4 C 83 % 1014 hPa 0,0 l/m 3,5 m/s (1 Bft) W-SW67.5 250 0,00 min 11,6 klux 8,4 C 7,7 C
13.07.2004 08:00 11,4 C 11,5 C 82 % 1014 hPa 0,0 l/m 3,4 m/s (1 Bft) W45 260 0,00 min 11,5 klux 8,4 C 8,1 C
13.07.2004 08:05 11,4 C 11,6 C 82 % 1014 hPa 0,0 l/m 5,2 m/s (1 Bft) W22.5 260 0,00 min 11,5 klux 8,4 C 5,5 C
13.07.2004 08:10 11,6 C 11,6 C 81 % 1014 hPa 0,0 l/m 2,9 m/s (1 Bft) W22.5 260 0,00 min 16,2 klux 8,5 C 9,2 C
13.07.2004 08:15 11,7 C 11,7 C 80 % 1014 hPa 0,0 l/m 5,5 m/s (1 Bft) W-SW22.5 250 0,00 min 15,2 klux 8,4 C 5,6 C
13.07.2004 08:20 12,1 C 11,8 C 79 % 1014 hPa 0,0 l/m 4,6 m/s (1 Bft) W22.5 260 0,00 min 23,8 klux 8,6 C 7,1 C
13.07.2004 08:25 12,2 C 12,0 C 77 % 1014 hPa 0,0 l/m 4,6 m/s (1 Bft) W45 260 0,00 min 27,4 klux 8,3 C 7,3 C
13.07.2004 08:30 12,4 C 12,3 C 75 % 1014 hPa 0,0 l/m 5,4 m/s (1 Bft) W45 265 0,00 min 25,3 klux 8,1 C 6,6 C
13.07.2004 08:35 12,5 C 12,5 C 75 % 1014 hPa 0,0 l/m 5,0 m/s (1 Bft) W-SW45 250 0,00 min 26,1 klux 8,2 C 7,1 C
13.07.2004 08:40 12,6 C 12,5 C 74 % 1014 hPa 0,0 l/m 4,9 m/s (1 Bft) W-SW22.5 255 0,00 min 29,4 klux 8,1 C 7,3 C
13.07.2004 08:45 12,7 C 12,7 C 74 % 1014 hPa 0,0 l/m 4,7 m/s (1 Bft) W-SW45 250 0,00 min 24,4 klux 8,2 C 7,7 C
13.07.2004 08:50 12,4 C 12,8 C 74 % 1014 hPa 0,0 l/m 7,7 m/s (2 Bft) W-SW22.5 250 0,00 min 16,7 klux 7,9 C 4,5 C
13.07.2004 08:55 12,4 C 12,8 C 74 % 1014 hPa 0,0 l/m 6,7 m/s (2 Bft) W45 270 0,00 min 22,0 klux 7,9 C 5,3 C
13.07.2004 09:00 12,5 C 12,8 C 74 % 1014 hPa 0,0 l/m 3,3 m/s (1 Bft) W-SW45 250 0,00 min 35,8 klux 8,0 C 9,4 C
13.07.2004 09:05 13,2 C 13,0 C 72 % 1014 hPa 0,0 l/m 4,5 m/s (1 Bft) W-SW45 240 5,00 min 58,7 klux 8,3 C 8,6 C
13.07.2004 09:10 13,2 C 13,1 C 71 % 1014 hPa 0,0 l/m 6,9 m/s (2 Bft) W45 260 5,00 min 75,7 klux 8,1 C 6,2 C
13.07.2004 09:15 13,1 C 13,2 C 70 % 1014 hPa 0,0 l/m 5,4 m/s (1 Bft) W-SW22.5 255 5,00 min 46,3 klux 7,8 C 7,5 C
13.07.2004 09:20 13,6 C 13,4 C 69 % 1014 hPa 0,0 l/m 6,3 m/s (2 Bft) W-SW45 255 5,00 min 44,7 klux 8,0 C 7,2 C
13.07.2004 09:25 13,3 C 13,6 C 68 % 1014 hPa 0,0 l/m 7,1 m/s (2 Bft) W45 265 0,00 min 40,3 klux 7,5 C 6,2 C
13.07.2004 09:30 12,8 C 13,6 C 70 % 1014 hPa 0,0 l/m 7,2 m/s (2 Bft) W-SW45 250 0,00 min 18,5 klux 7,5 C 5,4 C
13.07.2004 09:35 12,6 C 13,5 C 72 % 1014 hPa 0,0 l/m 6,9 m/s (2 Bft) W-SW45 250 0,00 min 16,7 klux 7,7 C 5,4 C
13.07.2004 09:40 12,5 C 13,4 C 73 % 1014 hPa 0,0 l/m 6,5 m/s (2 Bft) W22.5 260 0,00 min 21,7 klux 7,8 C 5,6 C
13.07.2004 09:45 12,4 C 13,4 C 73 % 1015 hPa 0,0 l/m 6,7 m/s (2 Bft) W-SW45 250 0,00 min 21,6 klux 7,7 C 5,3 C
13.07.2004 09:50 12,8 C 13,3 C 74 % 1015 hPa 0,0 l/m 6,6 m/s (2 Bft) W45 260 0,00 min 42,6 klux 8,3 C 6,0 C
13.07.2004 09:55 13,3 C 13,4 C 72 % 1015 hPa 0,0 l/m 5,2 m/s (1 Bft) W45 260 0,00 min 37,3 klux 8,4 C 7,9 C
13.07.2004 10:00 12,9 C 13,5 C 72 % 1015 hPa 0,0 l/m 5,7 m/s (1 Bft) W22.5 260 0,00 min 27,2 klux 8,0 C 6,9 C
13.07.2004 10:05 12,6 C 13,5 C 72 % 1015 hPa 0,0 l/m 8,1 m/s (2 Bft) W-SW22.5 250 0,00 min 29,6 klux 7,7 C 4,5 C
13.07.2004 10:10 13,0 C 13,5 C 72 % 1015 hPa 0,0 l/m 5,4 m/s (1 Bft) W45 265 0,00 min 27,0 klux 8,1 C 7,4 C
13.07.2004 10:15 13,2 C 13,6 C 72 % 1015 hPa 0,0 l/m 4,7 m/s (1 Bft) W45 260 0,00 min 26,2 klux 8,3 C 8,4 C
13.07.2004 10:20 13,1 C 13,7 C 72 % 1015 hPa 0,0 l/m 4,3 m/s (1 Bft) W-SW45 255 0,00 min 23,1 klux 8,2 C 8,7 C
13.07.2004 10:25 12,8 C 13,8 C 73 % 1015 hPa 0,0 l/m 5,5 m/s (1 Bft) W-SW45 250 0,00 min 18,7 klux 8,1 C 6,9 C
13.07.2004 10:30 13,1 C 13,9 C 73 % 1015 hPa 0,0 l/m 5,6 m/s (1 Bft) W67.5 260 0,00 min 32,9 klux 8,4 C 7,3 C
13.07.2004 10:35 13,4 C 13,9 C 70 % 1015 hPa 0,0 l/m 5,3 m/s (1 Bft) W-SW45 245 0,00 min 46,3 klux 8,0 C 7,9 C
13.07.2004 10:40 13,5 C 14,0 C 69 % 1015 hPa 0,0 l/m 6,0 m/s (2 Bft) W45 260 0,00 min 27,9 klux 7,9 C 7,4 C
13.07.2004 10:45 13,2 C 14,0 C 71 % 1015 hPa 0,0 l/m 6,5 m/s (2 Bft) W45 260 0,00 min 19,6 klux 8,1 C 6,5 C
13.07.2004 10:50 13,5 C 14,1 C 71 % 1015 hPa 0,0 l/m 3,3 m/s (1 Bft) W45 260 0,00 min 23,7 klux 8,3 C 10,6 C
13.07.2004 10:55 14,0 C 14,1 C 70 % 1015 hPa 0,0 l/m 3,6 m/s (1 Bft) W45 260 0,00 min 38,1 klux 8,6 C 10,8 C
13.07.2004 11:00 14,2 C 14,4 C 68 % 1015 hPa 0,0 l/m 4,8 m/s (1 Bft) W-SW22.5 255 0,00 min 36,9 klux 8,4 C 9,5 C
13.07.2004 11:05 14,1 C 14,6 C 67 % 1015 hPa 0,0 l/m 4,4 m/s (1 Bft) W-SW45 250 0,00 min 42,0 klux 8,1 C 9,8 C
13.07.2004 11:10 13,8 C 14,6 C 68 % 1015 hPa 0,0 l/m 5,9 m/s (2 Bft) W-SW22.5 250 0,00 min 31,5 klux 8,0 C 7,9 C
13.07.2004 11:15 13,3 C 14,4 C 69 % 1015 hPa 0,0 l/m 5,4 m/s (1 Bft) W67.5 265 0,00 min 14,3 klux 7,7 C 7,7 C
13.07.2004 11:20 13,4 C 14,3 C 70 % 1015 hPa 0,0 l/m 7,4 m/s (2 Bft) W45 260 0,00 min 18,2 klux 8,0 C 6,1 C
13.07.2004 11:25 13,2 C 14,2 C 72 % 1015 hPa 0,0 l/m 5,6 m/s (1 Bft) W45 270 0,00 min 20,0 klux 8,3 C 7,4 C
13.07.2004 11:30 13,1 C 14,1 C 73 % 1015 hPa 0,0 l/m 7,0 m/s (2 Bft) W45 260 0,00 min 18,4 klux 8,4 C 6,0 C
13.07.2004 11:35 13,1 C 14,1 C 72 % 1015 hPa 0,0 l/m 4,2 m/s (1 Bft) W-SW45 255 0,00 min 40,6 klux 8,2 C 8,9 C
13.07.2004 11:40 13,8 C 14,4 C 71 % 1015 hPa 0,0 l/m 3,8 m/s (1 Bft) W45 270 5,00 min 66,0 klux 8,6 C 10,2 C
13.07.2004 11:45 15,1 C 14,8 C 68 % 1015 hPa 0,0 l/m 4,3 m/s (1 Bft) W45 260 5,00 min 67,4 klux 9,2 C 11,2 C
13.07.2004 11:50 15,2 C 15,6 C 63 % 1015 hPa 0,0 l/m 5,8 m/s (2 Bft) W-SW45 240 5,00 min 114 klux 8,2 C 9,8 C
13.07.2004 11:55 15,0 C 15,9 C 64 % 1015 hPa 0,0 l/m 7,0 m/s (2 Bft) W45 260 0,00 min 62,5 klux 8,2 C 8,5 C
13.07.2004 12:00 14,7 C 15,9 C 67 % 1015 hPa 0,0 l/m 4,7 m/s (1 Bft) W-SW45 255 0,00 min 31,3 klux 8,6 C 10,2 C
13.07.2004 12:05 14,2 C 15,6 C 69 % 1015 hPa 0,0 l/m 5,1 m/s (1 Bft) W-NW67.5 285 0,00 min 18,1 klux 8,6 C 9,2 C
13.07.2004 12:10 14,1 C 15,3 C 70 % 1015 hPa 0,0 l/m 4,0 m/s (1 Bft) W-NW45 285 0,00 min 16,6 klux 8,7 C 10,3 C
13.07.2004 12:15 13,4 C 14,9 C 74 % 1015 hPa 0,0 l/m 5,0 m/s (1 Bft) W-NW45 295 0,00 min 18,0 klux 8,9 C 8,3 C
13.07.2004 12:20 13,2 C 14,8 C 75 % 1015 hPa 0,0 l/m 5,5 m/s (1 Bft) W22.5 275 0,00 min 32,8 klux 8,9 C 7,5 C
13.07.2004 12:25 13,4 C 14,7 C 76 % 1015 hPa 0,0 l/m 5,0 m/s (1 Bft) W67.5 280 0,00 min 20,6 klux 9,3 C 8,2 C
13.07.2004 12:30 13,2 C 14,4 C 77 % 1015 hPa 0,0 l/m 5,2 m/s (1 Bft) W-NW45 290 0,00 min 17,1 klux 9,3 C 7,8 C
13.07.2004 12:35 12,7 C 14,3 C 79 % 1015 hPa 0,0 l/m 4,9 m/s (1 Bft) W45 265 0,00 min 17,7 klux 9,2 C 7,5 C
13.07.2004 12:40 12,5 C 14,0 C 82 % 1015 hPa 0,0 l/m 5,6 m/s (1 Bft) W22.5 260 0,00 min 15,6 klux 9,5 C 6,4 C
13.07.2004 12:45 12,6 C 14,0 C 82 % 1015 hPa 0,4 l/m 3,6 m/s (1 Bft) W-SW22.5 255 0,00 min 27,0 klux 9,6 C 9,1 C
13.07.2004 12:50 12,9 C 14,0 C 82 % 1015 hPa 0,0 l/m 2,6 m/s (1 Bft) W-SW45 250 0,00 min 33,3 klux 9,9 C 11,1 C
13.07.2004 12:55 13,8 C 14,2 C 80 % 1015 hPa 0,0 l/m 3,4 m/s (1 Bft) W-SW22.5 240 0,00 min 47,7 klux 10,4 C 10,8 C
13.07.2004 13:00 13,6 C 14,9 C 80 % 1015 hPa 0,0 l/m 3,2 m/s (1 Bft) W-SW45 245 5,00 min 105 klux 10,2 C 10,8 C
13.07.2004 13:05 14,1 C 15,5 C 76 % 1015 hPa 0,0 l/m 6,5 m/s (2 Bft) W-SW22.5 245 5,00 min 76,5 klux 9,9 C 7,7 C
13.07.2004 13:10 14,8 C 15,9 C 75 % 1015 hPa 0,0 l/m 4,0 m/s (1 Bft) W45 265 5,00 min 88,1 klux 10,4 C 11,1 C
13.07.2004 13:15 14,8 C 16,8 C 73 % 1015 hPa 0,0 l/m 5,3 m/s (1 Bft) W-SW22.5 255 5,00 min 103 klux 10,0 C 9,8 C
13.07.2004 13:20 15,6 C 17,3 C 70 % 1015 hPa 0,0 l/m 5,3 m/s (1 Bft) W-SW67.5 255 5,00 min 124 klux 10,1 C 10,7 C
13.07.2004 13:25 15,6 C 17,3 C 70 % 1015 hPa 0,0 l/m 4,9 m/s (1 Bft) W67.5 275 5,00 min 85,6 klux 10,1 C 11,2 C
13.07.2004 13:30 15,1 C 18,2 C 66 % 1015 hPa 0,0 l/m 8,8 m/s (2 Bft) W45 265 0,00 min 38,1 klux 8,8 C 7,5 C
13.07.2004 13:35 14,8 C 17,5 C 70 % 1015 hPa 0,0 l/m 4,6 m/s (1 Bft) W45 265 0,00 min 18,0 klux 9,4 C 10,4 C
13.07.2004 13:40 14,1 C 16,9 C 71 % 1015 hPa 0,0 l/m 5,1 m/s (1 Bft) W45 270 0,00 min 15,2 klux 8,9 C 9,0 C
13.07.2004 13:45 13,8 C 16,6 C 72 % 1015 hPa 0,0 l/m 6,5 m/s (2 Bft) W-SW45 255 0,00 min 20,2 klux 8,8 C 7,3 C
13.07.2004 13:50 13,6 C 16,0 C 73 % 1015 hPa 0,0 l/m 9,1 m/s (2 Bft) W45 270 0,00 min 21,2 klux 8,9 C 5,2 C
13.07.2004 13:55 13,4 C 15,5 C 73 % 1016 hPa 0,0 l/m 7,3 m/s (2 Bft) W22.5 260 0,00 min 22,0 klux 8,7 C 6,1 C
13.07.2004 14:00 13,1 C 15,3 C 73 % 1016 hPa 0,0 l/m 6,9 m/s (2 Bft) W-SW22.5 255 0,00 min 20,0 klux 8,4 C 6,1 C
13.07.2004 14:05 13,0 C 14,9 C 74 % 1016 hPa 0,0 l/m 5,1 m/s (1 Bft) W45 260 0,00 min 22,8 klux 8,5 C 7,6 C
13.07.2004 14:10 13,2 C 14,7 C 74 % 1016 hPa 0,0 l/m 5,0 m/s (1 Bft) W45 260 0,00 min 28,6 klux 8,7 C 8,0 C
13.07.2004 14:15 13,4 C 14,7 C 74 % 1016 hPa 0,0 l/m 3,1 m/s (1 Bft) W45 265 0,00 min 36,6 klux 8,9 C 10,7 C
13.07.2004 14:20 13,8 C 14,8 C 74 % 1016 hPa 0,0 l/m 2,8 m/s (1 Bft) W-SW45 255 0,00 min 40,1 klux 9,2 C 11,7 C
13.07.2004 14:25 14,0 C 14,9 C 71 % 1016 hPa 0,0 l/m 3,8 m/s (1 Bft) W-SW45 250 0,00 min 39,2 klux 8,8 C 10,4 C
13.07.2004 14:30 14,7 C 15,1 C 71 % 1016 hPa 0,0 l/m 4,3 m/s (1 Bft) W45 275 0,00 min 46,2 klux 9,5 C 10,7 C
13.07.2004 14:35 14,7 C 15,3 C 67 % 1016 hPa 0,0 l/m 4,9 m/s (1 Bft) W22.5 260 0,00 min 51,9 klux 8,6 C 10,0 C
13.07.2004 14:40 15,1 C 15,7 C 66 % 1016 hPa 0,0 l/m 4,2 m/s (1 Bft) W22.5 260 0,00 min 56,2 klux 8,8 C 11,2 C
13.07.2004 14:45 14,7 C 16,0 C 64 % 1016 hPa 0,0 l/m 5,1 m/s (1 Bft) W-SW45 255 0,00 min 53,0 klux 8,0 C 9,8 C
13.07.2004 14:50 15,0 C 16,0 C 63 % 1016 hPa 0,0 l/m 5,8 m/s (2 Bft) W45 260 0,00 min 48,5 klux 8,0 C 9,5 C
13.07.2004 14:55 15,1 C 16,1 C 64 % 1016 hPa 0,0 l/m 5,0 m/s (1 Bft) W-SW22.5 245 0,00 min 46,9 klux 8,3 C 10,4 C
13.07.2004 15:00 15,3 C 16,1 C 64 % 1016 hPa 0,0 l/m 5,0 m/s (1 Bft) W-SW22.5 250 0,00 min 36,8 klux 8,5 C 10,6 C
13.07.2004 15:05 15,3 C 16,2 C 64 % 1016 hPa 0,0 l/m 3,5 m/s (1 Bft) W-SW45 245 0,00 min 43,7 klux 8,5 C 12,4 C
13.07.2004 15:10 15,3 C 16,3 C 63 % 1016 hPa 0,0 l/m 5,9 m/s (2 Bft) W45 265 0,00 min 54,0 klux 8,3 C 9,8 C
13.07.2004 15:15 16,0 C 16,5 C 62 % 1016 hPa 0,0 l/m 8,0 m/s (2 Bft) W45 280 0,00 min 54,0 klux 8,7 C 9,3 C
13.07.2004 15:20 15,6 C 16,7 C 61 % 1016 hPa 0,0 l/m 7,3 m/s (2 Bft) W-SW67.5 255 0,00 min 44,3 klux 8,1 C 9,2 C
13.07.2004 15:25 16,2 C 16,7 C 62 % 1016 hPa 0,0 l/m 5,2 m/s (1 Bft) W45 260 0,00 min 32,8 klux 8,9 C 11,6 C
13.07.2004 15:30 15,2 C 16,7 C 63 % 1016 hPa 0,0 l/m 5,3 m/s (1 Bft) W-SW22.5 245 0,00 min 30,8 klux 8,2 C 10,3 C
13.07.2004 15:35 15,0 C 16,5 C 64 % 1016 hPa 0,0 l/m 5,6 m/s (1 Bft) W-SW22.5 255 0,00 min 25,0 klux 8,2 C 9,7 C
13.07.2004 15:40 14,1 C 16,5 C 69 % 1016 hPa 0,0 l/m 8,6 m/s (2 Bft) W-SW45 250 0,00 min 10,1 klux 8,5 C 6,2 C
13.07.2004 15:45 14,2 C 16,0 C 71 % 1016 hPa 0,0 l/m 6,7 m/s (2 Bft) W-SW45 255 0,00 min 57,0 klux 9,0 C 7,7 C
13.07.2004 15:50 15,0 C 16,2 C 69 % 1016 hPa 0,0 l/m 3,6 m/s (1 Bft) W45 265 0,00 min 54,0 klux 9,4 C 11,9 C
13.07.2004 15:55 15,8 C 16,7 C 66 % 1016 hPa 0,0 l/m 4,4 m/s (1 Bft) W45 265 0,00 min 54,6 klux 9,5 C 11,9 C
13.07.2004 16:00 15,8 C 17,0 C 62 % 1016 hPa 0,0 l/m 8,0 m/s (2 Bft) W22.5 260 5,00 min 79,7 klux 8,5 C 9,0 C
13.07.2004 16:05 16,0 C 17,5 C 60 % 1016 hPa 0,0 l/m 4,1 m/s (1 Bft) W45 275 5,00 min 59,4 klux 8,2 C 12,5 C
13.07.2004 16:10 16,3 C 18,5 C 61 % 1016 hPa 0,0 l/m 4,4 m/s (1 Bft) W-SW45 250 5,00 min 64,2 klux 8,8 C 12,5 C
13.07.2004 16:15 16,1 C 18,9 C 61 % 1016 hPa 0,0 l/m 4,3 m/s (1 Bft) W45 260 5,00 min 70,4 klux 8,6 C 12,4 C
13.07.2004 16:20 16,0 C 19,6 C 60 % 1016 hPa 0,0 l/m 6,0 m/s (2 Bft) W-SW22.5 255 5,00 min 106 klux 8,2 C 10,7 C
13.07.2004 16:25 16,3 C 19,9 C 58 % 1016 hPa 0,0 l/m 5,3 m/s (1 Bft) W45 260 5,00 min 90,0 klux 8,0 C 11,7 C
13.07.2004 16:30 16,4 C 19,6 C 59 % 1016 hPa 0,0 l/m 5,3 m/s (1 Bft) W45 260 0,00 min 48,2 klux 8,4 C 11,8 C
13.07.2004 16:35 15,3 C 19,0 C 58 % 1016 hPa 0,0 l/m 5,7 m/s (1 Bft) W-SW45 255 0,00 min 22,8 klux 7,1 C 10,0 C
13.07.2004 16:40 14,9 C 18,5 C 62 % 1016 hPa 0,0 l/m 7,9 m/s (2 Bft) W45 260 0,00 min 13,3 klux 7,7 C 7,8 C
13.07.2004 16:45 14,8 C 17,4 C 64 % 1016 hPa 0,0 l/m 7,9 m/s (2 Bft) W-SW22.5 255 0,00 min 8,77 klux 8,1 C 7,6 C
13.07.2004 16:50 14,5 C 17,1 C 65 % 1016 hPa 0,0 l/m 7,9 m/s (2 Bft) W45 275 0,00 min 12,0 klux 8,0 C 7,3 C
13.07.2004 16:55 14,3 C 16,6 C 66 % 1016 hPa 0,0 l/m 6,0 m/s (2 Bft) W22.5 265 0,00 min 8,72 klux 8,0 C 8,4 C
13.07.2004 17:00 14,6 C 16,3 C 67 % 1016 hPa 0,0 l/m 2,8 m/s (1 Bft) W45 270 0,00 min 8,72 klux 8,5 C 12,7 C
13.07.2004 17:05 15,0 C 16,3 C 66 % 1016 hPa 0,0 l/m 3,0 m/s (1 Bft) W45 265 0,00 min 33,0 klux 8,7 C 12,8 C
13.07.2004 17:10 15,4 C 16,4 C 64 % 1016 hPa 0,0 l/m 4,2 m/s (1 Bft) W-NW67.5 285 0,00 min 33,9 klux 8,6 C 11,7 C
13.07.2004 17:15 15,5 C 16,4 C 63 % 1016 hPa 0,0 l/m 5,8 m/s (2 Bft) W-NW67.5 285 0,00 min 32,4 klux 8,5 C 10,2 C
13.07.2004 17:20 15,5 C 16,2 C 64 % 1016 hPa 0,0 l/m 4,9 m/s (1 Bft) W45 260 0,00 min 23,4 klux 8,7 C 11,0 C
13.07.2004 17:25 15,0 C 16,1 C 64 % 1016 hPa 0,0 l/m 4,8 m/s (1 Bft) W-NW67.5 295 0,00 min 12,1 klux 8,2 C 10,5 C
13.07.2004 17:30 14,8 C 15,9 C 65 % 1016 hPa 0,0 l/m 3,6 m/s (1 Bft) W-NW22.5 285 0,00 min 12,0 klux 8,3 C 11,7 C
13.07.2004 17:35 14,2 C 15,6 C 65 % 1016 hPa 0,0 l/m 5,8 m/s (2 Bft) W45 270 0,00 min 8,71 klux 7,7 C 8,5 C
13.07.2004 17:40 14,3 C 15,5 C 66 % 1016 hPa 0,0 l/m 4,7 m/s (1 Bft) W22.5 280 0,00 min 8,77 klux 8,0 C 9,7 C
13.07.2004 17:45 14,0 C 15,2 C 66 % 1017 hPa 0,0 l/m 6,0 m/s (2 Bft) W22.5 270 0,00 min 9,3 klux 7,7 C 8,1 C
13.07.2004 17:50 14,0 C 15,0 C 66 % 1016 hPa 0,0 l/m 4,3 m/s (1 Bft) W45 275 0,00 min 9,3 klux 7,7 C 9,9 C
13.07.2004 17:55 14,0 C 15,0 C 66 % 1016 hPa 0,0 l/m 3,2 m/s (1 Bft) W22.5 270 0,00 min 13,5 klux 7,7 C 11,3 C
13.07.2004 18:00 14,1 C 15,0 C 67 % 1017 hPa 0,0 l/m 3,6 m/s (1 Bft) W67.5 265 0,00 min 16,7 klux 8,1 C 10,9 C
13.07.2004 18:05 14,1 C 15,0 C 68 % 1017 hPa 0,0 l/m 5,7 m/s (1 Bft) W-SW45 255 0,00 min 18,4 klux 8,3 C 8,5 C
13.07.2004 18:10 14,2 C 15,0 C 68 % 1017 hPa 0,0 l/m 3,1 m/s (1 Bft) SW45 235 0,00 min 21,1 klux 8,4 C 11,6 C
13.07.2004 18:15 14,4 C 15,0 C 68 % 1017 hPa 0,0 l/m 2,3 m/s (1 Bft) W-SW45 255 0,00 min 22,1 klux 8,6 C 13,4 C
13.07.2004 18:20 14,7 C 15,0 C 68 % 1017 hPa 0,0 l/m 3,6 m/s (1 Bft) W-SW22.5 250 0,00 min 23,2 klux 8,9 C 11,6 C
13.07.2004 18:25 14,7 C 15,1 C 67 % 1017 hPa 0,0 l/m 4,3 m/s (1 Bft) W67.5 270 0,00 min 23,9 klux 8,6 C 10,7 C
13.07.2004 18:30 14,8 C 15,2 C 68 % 1017 hPa 0,0 l/m 4,8 m/s (1 Bft) W22.5 280 0,00 min 20,4 klux 9,0 C 10,2 C
13.07.2004 18:35 14,7 C 15,3 C 68 % 1017 hPa 0,0 l/m 3,4 m/s (1 Bft) W-SW45 255 0,00 min 20,3 klux 8,9 C 11,8 C
13.07.2004 18:40 14,5 C 15,3 C 69 % 1017 hPa 0,0 l/m 3,6 m/s (1 Bft) W67.5 275 0,00 min 11,8 klux 8,9 C 11,3 C
13.07.2004 18:45 14,4 C 15,2 C 69 % 1017 hPa 0,0 l/m 2,8 m/s (1 Bft) W45 265 0,00 min 8,98 klux 8,8 C 12,5 C
13.07.2004 18:50 14,4 C 15,2 C 70 % 1017 hPa 0,0 l/m 2,2 m/s (1 Bft) W22.5 260 0,00 min 8,09 klux 9,0 C 13,6 C
13.07.2004 18:55 14,5 C 15,2 C 71 % 1017 hPa 0,0 l/m 2,7 m/s (1 Bft) SW45 230 0,00 min 9,3 klux 9,3 C 12,8 C
13.07.2004 19:00 14,5 C 15,2 C 71 % 1017 hPa 0,0 l/m 2,3 m/s (1 Bft) W-NW45 285 0,00 min 8,11 klux 9,3 C 13,5 C
13.07.2004 19:05 14,5 C 15,1 C 71 % 1017 hPa 0,0 l/m 4,1 m/s (1 Bft) W-SW22.5 245 0,00 min 7,50 klux 9,3 C 10,7 C
13.07.2004 19:10 14,5 C 15,1 C 71 % 1017 hPa 0,0 l/m 2,6 m/s (1 Bft) NW67.5 305 0,00 min 10,9 klux 9,3 C 12,9 C
13.07.2004 19:15 14,5 C 15,1 C 71 % 1017 hPa 0,0 l/m 2,3 m/s (1 Bft) W45 280 0,00 min 9,5 klux 9,3 C 13,5 C
13.07.2004 19:20 14,5 C 15,1 C 70 % 1017 hPa 0,0 l/m 2,9 m/s (1 Bft) W45 260 0,00 min 7,04 klux 9,1 C 12,3 C
13.07.2004 19:25 14,3 C 15,1 C 71 % 1017 hPa 0,0 l/m 1,6 m/s (1 Bft) W-SW 250 0,00 min 4,26 klux 9,1 C 14,3 C
13.07.2004 19:30 14,2 C 15,0 C 71 % 1017 hPa 0,0 l/m 5,5 m/s (1 Bft) W45 260 0,00 min 9,0 klux 9,0 C 8,7 C
13.07.2004 19:35 14,6 C 15,0 C 71 % 1017 hPa 0,0 l/m 4,3 m/s (1 Bft) W45 260 0,00 min 13,9 klux 9,4 C 10,5 C
13.07.2004 19:40 14,5 C 15,0 C 71 % 1017 hPa 0,0 l/m 5,6 m/s (1 Bft) W45 260 0,00 min 14,0 klux 9,3 C 9,0 C
13.07.2004 19:45 14,5 C 15,0 C 72 % 1017 hPa 0,0 l/m 4,9 m/s (1 Bft) W45 270 0,00 min 10,5 klux 9,5 C 9,8 C
13.07.2004 19:50 14,5 C 15,0 C 72 % 1017 hPa 0,0 l/m 4,4 m/s (1 Bft) W22.5 265 0,00 min 10,0 klux 9,5 C 10,3 C
13.07.2004 19:55 14,2 C 15,0 C 72 % 1017 hPa 0,0 l/m 4,4 m/s (1 Bft) W22.5 265 0,00 min 8,62 klux 9,2 C 10,0 C
13.07.2004 20:00 14,5 C 14,9 C 73 % 1017 hPa 0,0 l/m 4,4 m/s (1 Bft) W45 265 0,00 min 8,97 klux 9,7 C 10,3 C
13.07.2004 20:05 14,5 C 14,9 C 72 % 1017 hPa 0,0 l/m 2,1 m/s (1 Bft) W22.5 265 0,00 min 11,3 klux 9,5 C 13,8 C
13.07.2004 20:10 14,6 C 15,0 C 71 % 1017 hPa 0,0 l/m 3,3 m/s (1 Bft) W45 265 0,00 min 13,8 klux 9,4 C 11,9 C
13.07.2004 20:15 14,4 C 15,0 C 71 % 1017 hPa 0,0 l/m 2,6 m/s (1 Bft) W22.5 260 0,00 min 11,9 klux 9,2 C 12,7 C
13.07.2004 20:20 14,4 C 15,0 C 72 % 1017 hPa 0,0 l/m 1,9 m/s (1 Bft) W22.5 260 0,00 min 9,3 klux 9,4 C 14,2 C
13.07.2004 20:25 14,1 C 14,9 C 72 % 1017 hPa 0,0 l/m 2,6 m/s (1 Bft) W22.5 265 0,00 min 6,16 klux 9,1 C 12,5 C
13.07.2004 20:30 13,9 C 14,8 C 74 % 1017 hPa 0,0 l/m 2,2 m/s (1 Bft) W-SW22.5 250 0,00 min 4,13 klux 9,3 C 12,9 C
13.07.2004 20:35 13,8 C 14,6 C 75 % 1017 hPa 0,0 l/m 1,8 m/s (1 Bft) W-SW22.5 250 0,00 min 3,25 klux 9,4 C 13,7 C
13.07.2004 20:40 13,8 C 14,5 C 74 % 1017 hPa 0,0 l/m 3,8 m/s (1 Bft) W-SW22.5 250 0,00 min 2,33 klux 9,2 C 10,3 C
13.07.2004 20:45 13,7 C 14,4 C 75 % 1017 hPa 0,0 l/m 2,4 m/s (1 Bft) W-SW45 245 0,00 min 1,48 klux 9,3 C 12,4 C
13.07.2004 20:50 13,6 C 14,4 C 75 % 1017 hPa 0,0 l/m 2,5 m/s (1 Bft) W-SW22.5 250 0,00 min 1,14 klux 9,3 C 12,0 C
13.07.2004 20:55 13,6 C 14,3 C 74 % 1017 hPa 0,0 l/m 2,8 m/s (1 Bft) W-SW22.5 255 0,00 min 987 lux 9,1 C 11,6 C
13.07.2004 21:00 13,6 C 14,2 C 74 % 1017 hPa 0,0 l/m 1,6 m/s (1 Bft) W-SW45 250 0,00 min 1,25 klux 9,1 C 13,6 C
13.07.2004 21:05 13,4 C 14,1 C 74 % 1017 hPa 0,0 l/m 2,0 m/s (1 Bft) W-SW22.5 255 0,00 min 1,45 klux 8,9 C 12,8 C
13.07.2004 21:10 13,4 C 14,0 C 74 % 1017 hPa 0,0 l/m 2,6 m/s (1 Bft) W-SW22.5 255 0,00 min 1,24 klux 8,9 C 11,8 C
13.07.2004 21:15 13,3 C 13,9 C 75 % 1017 hPa 0,0 l/m 1,9 m/s (1 Bft) W22.5 260 0,00 min 983 lux 9,0 C 13,1 C
13.07.2004 21:20 13,3 C 13,9 C 75 % 1017 hPa 0,0 l/m 2,3 m/s (1 Bft) W22.5 260 0,00 min 591 lux 9,0 C 12,3 C
13.07.2004 21:25 13,3 C 13,8 C 74 % 1017 hPa 0,0 l/m 2,8 m/s (1 Bft) W-SW22.5 250 0,00 min 482 lux 8,8 C 11,2 C
13.07.2004 21:30 13,2 C 13,7 C 74 % 1017 hPa 0,0 l/m 3,6 m/s (1 Bft) W45 260 0,00 min 419 lux 8,7 C 9,9 C
13.07.2004 21:35 13,1 C 13,7 C 75 % 1017 hPa 0,0 l/m 1,4 m/s (1 Bft) W-SW45 245 0,00 min 279 lux 8,8 C 13,1 C
13.07.2004 21:40 13,1 C 13,6 C 75 % 1017 hPa 0,0 l/m 2,4 m/s (1 Bft) W45 265 0,00 min 187 lux 8,8 C 11,7 C
13.07.2004 21:45 13,1 C 13,6 C 75 % 1018 hPa 0,0 l/m 2,3 m/s (1 Bft) W-SW22.5 255 0,00 min 104 lux 8,8 C 12,0 C
13.07.2004 21:50 13,0 C 13,5 C 75 % 1018 hPa 0,0 l/m 2,0 m/s (1 Bft) W22.5 260 0,00 min 79 lux 8,7 C 12,6 C
13.07.2004 21:55 13,0 C 13,5 C 75 % 1018 hPa 0,0 l/m 1,5 m/s (1 Bft) W45 260 0,00 min 46 lux 8,7 C 13,0 C
13.07.2004 22:00 13,0 C 13,5 C 76 % 1018 hPa 0,0 l/m 1,6 m/s (1 Bft) W22.5 265 0,00 min 26 lux 8,9 C 13,0 C
13.07.2004 22:05 12,9 C 13,3 C 77 % 1018 hPa 0,0 l/m 0,9 m/s (0 Bft) W 265 0,00 min 15 lux 9,0 C 12,9 C
13.07.2004 22:10 13,0 C 13,3 C 76 % 1018 hPa 0,0 l/m 1,6 m/s (1 Bft) W-SW45 250 0,00 min 6 lux 8,9 C 13,0 C
13.07.2004 22:15 12,9 C 13,3 C 77 % 1018 hPa 0,0 l/m 1,4 m/s (1 Bft) W22.5 265 0,00 min 1 lux 9,0 C 12,9 C
13.07.2004 22:20 13,0 C 13,3 C 76 % 1018 hPa 0,0 l/m 1,4 m/s (1 Bft) W-SW22.5 255 0,00 min 0 lux 8,9 C 13,0 C
13.07.2004 22:25 12,9 C 13,3 C 77 % 1018 hPa 0,0 l/m 0,8 m/s (0 Bft) W22.5 260 0,00 min 0 lux 9,0 C 12,9 C
13.07.2004 22:30 12,9 C 13,3 C 78 % 1018 hPa 0,0 l/m 1,3 m/s (1 Bft) W22.5 275 0,00 min 0 lux 9,2 C 12,9 C
13.07.2004 22:35 12,9 C 13,2 C 78 % 1018 hPa 0,0 l/m 1,1 m/s (0 Bft) W 265 0,00 min 0 lux 9,2 C 12,9 C
13.07.2004 22:40 12,9 C 13,2 C 78 % 1018 hPa 0,0 l/m 2,3 m/s (1 Bft) W-SW22.5 255 0,00 min 0 lux 9,2 C 11,8 C
13.07.2004 22:45 13,0 C 13,2 C 78 % 1018 hPa 0,0 l/m 1,8 m/s (1 Bft) W45 280 0,00 min 0 lux 9,3 C 12,9 C
13.07.2004 22:50 12,9 C 13,2 C 79 % 1018 hPa 0,0 l/m 1,8 m/s (1 Bft) W45 280 0,00 min 0 lux 9,3 C 12,8 C
13.07.2004 22:55 12,8 C 13,2 C 79 % 1018 hPa 0,0 l/m 0,8 m/s (0 Bft) W 270 0,00 min 0 lux 9,2 C 12,8 C
13.07.2004 23:00 12,8 C 13,2 C 80 % 1018 hPa 0,0 l/m 0,0 m/s (0 Bft) W 270 0,00 min 0 lux 9,4 C 12,8 C
13.07.2004 23:05 12,8 C 13,2 C 80 % 1018 hPa 0,0 l/m 1,3 m/s (1 Bft) W22.5 270 0,00 min 0 lux 9,4 C 12,8 C
13.07.2004 23:10 12,8 C 13,2 C 79 % 1018 hPa 0,0 l/m 1,4 m/s (1 Bft) W45 260 0,00 min 0 lux 9,2 C 12,8 C
13.07.2004 23:15 12,7 C 13,1 C 80 % 1018 hPa 0,0 l/m 0,0 m/s (0 Bft) W-SW22.5 250 0,00 min 0 lux 9,3 C 12,7 C
13.07.2004 23:20 12,7 C 13,1 C 80 % 1018 hPa 0,0 l/m 2,3 m/s (1 Bft) W22.5 265 0,00 min 0 lux 9,3 C 11,6 C
13.07.2004 23:25 12,7 C 13,1 C 79 % 1018 hPa 0,0 l/m 3,5 m/s (1 Bft) W-SW45 255 0,00 min 0 lux 9,2 C 9,4 C
13.07.2004 23:30 12,6 C 13,0 C 79 % 1018 hPa 0,0 l/m 2,2 m/s (1 Bft) W45 260 0,00 min 0 lux 9,1 C 11,7 C
13.07.2004 23:35 12,6 C 13,0 C 78 % 1018 hPa 0,0 l/m 3,3 m/s (1 Bft) W45 265 0,00 min 0 lux 8,9 C 9,5 C
13.07.2004 23:40 12,6 C 13,0 C 78 % 1018 hPa 0,0 l/m 1,3 m/s (1 Bft) W22.5 265 0,00 min 0 lux 8,9 C 12,6 C
13.07.2004 23:45 12,5 C 12,9 C 78 % 1018 hPa 0,0 l/m 2,0 m/s (1 Bft) W-SW45 250 0,00 min 0 lux 8,8 C 12,0 C
13.07.2004 23:50 12,5 C 12,9 C 78 % 1018 hPa 0,0 l/m 2,3 m/s (1 Bft) W-SW22.5 250 0,00 min 0 lux 8,8 C 11,4 C
13.07.2004 23:55 12,5 C 12,8 C 78 % 1019 hPa 0,0 l/m 2,6 m/s (1 Bft) W-SW22.5 255 0,00 min 0 lux 8,8 C 10,7 C
_ Min-Zeit 03:15 06:20 16:25 00:00 - 23:00 - - - - 16:35 02:45
Minimum _ 11,0 C 11,2 C 58 % 1013 hPa - 0,0 m/s (0 Bft) - - - - 7,1 C 3,3 C
_ Max-Zeit 16:30 16:25 01:25 23:55 12:45 13:50 - - 09:05 13:20 13:10 19:25
Maximum _ 16,4 C 19,9 C 84 % 1019 hPa 0,4 l/m 9,1 m/s
W (5 Bft)
- - 5,00 min 124 klux 10,4 C 14,3 C
Durchschnitt _ 13,0 C 13,7 C 75 % 1015 hPa #0,4 l/m 4,3 m/s (3 Bft) W-SW - #1:35 h 16,9 klux 8,6 C 8,9 C